Southern Star — WDG9984 — position and weather

sailwx.info

Track history (hours):
 
Tides and Currents Weather Stations Pressure Air Temp Water Temp Dewpoint Dewpoint Depression Visibility Wind Speed Wind Dir Waves Ship Positions

Southern Star

Owner: Southern Star, LLC, Chesapeake, VA. More information available from US FCC via Universal Licensing System and Coast Guard Vessel Documentation Center.

Last reported at 2018-Feb-16 21:28 UTC. Time now 2018-Feb-20 07:37 UTC.
Position N 36°48' W 076°17'.

Length 13 m; draft 3.5 m.

Type: Tug. MMSI: 367593210.

Date/timePositionNaut miles runAvg speedWind from/ knotsBaromVisibWave heightAir tempDewpointWater temp
2018-Feb-16 21:28N 36°48' W 076°17'1 3.0
2018-Feb-16 21:00N 36°50' W 076°18'4 7.0
2018-Feb-16 20:28N 36°53' W 076°20'0 0.9
2018-Feb-16 19:58N 36°53' W 076°21'0 0.1
2018-Feb-16 19:29N 36°53' W 076°21'0 0.0
2018-Feb-16 19:00N 36°53' W 076°21'0 0.0
2018-Feb-16 18:30N 36°53' W 076°21'0 0.0
2018-Feb-16 18:00N 36°53' W 076°21'0 0.0
2018-Feb-16 17:26N 36°53' W 076°21'0 0.0
2018-Feb-16 16:59N 36°53' W 076°21'0 0.0
2018-Feb-16 16:28N 36°53' W 076°21'0 0.0
2018-Feb-16 15:56N 36°53' W 076°21'0 0.3
2018-Feb-16 15:29N 36°53' W 076°21'0 0.8
2018-Feb-16 15:00N 36°53' W 076°20'0 0.0
2018-Feb-16 14:30N 36°53' W 076°20'3 6.0
2018-Feb-16 14:00N 36°51' W 076°18'2 0.1
2018-Feb-14 20:32N 36°48' W 076°17'0 0.2
2018-Feb-14 20:30N 36°48' W 076°17'3 5.7
2018-Feb-14 20:00N 36°51' W 076°18'3 5.0
2018-Feb-14 19:29N 36°53' W 076°20'0 0.7
2018-Feb-14 19:00N 36°53' W 076°20'1 1.9
2018-Feb-14 18:30N 36°52' W 076°20'1 1.8
2018-Feb-14 18:00N 36°52' W 076°19'0 0.0
2018-Feb-14 17:30N 36°52' W 076°19'0 0.0
2018-Feb-14 17:00N 36°52' W 076°19'0 0.0
2018-Feb-14 16:30N 36°52' W 076°19'0 0.0
2018-Feb-14 16:00N 36°52' W 076°19'0 0.0
2018-Feb-14 15:30N 36°52' W 076°19'0 0.0
2018-Feb-14 15:00N 36°52' W 076°19'0 0.0
2018-Feb-14 14:30N 36°52' W 076°19'0 0.0
2018-Feb-14 14:00N 36°52' W 076°19'0 0.2
2018-Feb-14 13:30N 36°52' W 076°19'2 3.4
2018-Feb-14 13:00N 36°53' W 076°20'0 0.0
2018-Feb-14 12:30N 36°53' W 076°20'0 0.0
2018-Feb-14 12:00N 36°53' W 076°20'1 2.2
2018-Feb-14 11:30N 36°52' W 076°20'4 7.7
2018-Feb-14 11:00N 36°49' W 076°17'0 0.0
2018-Feb-12 19:32N 36°48' W 076°17'0 0.0
2018-Feb-12 19:30N 36°48' W 076°17'1 1.5
2018-Feb-12 19:00N 36°49' W 076°17'4 8.4
2018-Feb-12 18:29N 36°53' W 076°20'0 0.1
2018-Feb-12 18:00N 36°53' W 076°20'0 0.0
2018-Feb-12 17:30N 36°53' W 076°20'0 0.0
2018-Feb-12 17:00N 36°53' W 076°20'0 0.2
2018-Feb-12 16:30N 36°53' W 076°20'3 5.4
2018-Feb-12 15:58N 36°56' W 076°20'1 0.9
2018-Feb-12 15:14N 36°56' W 076°20'0 0.0
2018-Feb-12 14:52N 36°56' W 076°20'0 0.0
2018-Feb-12 14:28N 36°56' W 076°20'0 0.0
2018-Feb-12 13:58N 36°56' W 076°20'0 0.0
2018-Feb-12 13:30N 36°56' W 076°20'0 0.0
2018-Feb-12 12:59N 36°56' W 076°20'0 0.0
2018-Feb-12 12:26N 36°56' W 076°20'0 0.0
2018-Feb-12 11:58N 36°56' W 076°20'0 0.0
2018-Feb-12 11:27N 36°56' W 076°20'0 0.0
2018-Feb-12 10:58N 36°56' W 076°20'1 2.3
2018-Feb-12 10:30N 36°55' W 076°20'2 4.7
2018-Feb-12 10:00N 36°53' W 076°20'3 6.2
2018-Feb-12 09:30N 36°51' W 076°17'2 3.4
2018-Feb-12 08:55N 36°50' W 076°15'2 5.8
2018-Feb-12 08:30N 36°49' W 076°17'  
2018-Feb-09 23:02N 36°48' W 076°17'0 0.0
2018-Feb-09 23:00N 36°48' W 076°17'1 2.9
2018-Feb-09 22:46N 36°49' W 076°17'1 5.5
2018-Feb-09 22:30N 36°50' W 076°17'4 1.3
2018-Feb-09 19:30N 36°53' W 076°20'0 0.0
2018-Feb-09 17:30N 36°53' W 076°20'0 0.1
2018-Feb-09 14:30N 36°53' W 076°20'4 8.5
2018-Feb-09 14:00N 36°49' W 076°17'0 0.0
2018-Feb-08 06:30N 36°48' W 076°17'0 0.0
2018-Feb-08 02:30N 36°48' W 076°17'0 0.0
2018-Feb-08 02:01N 36°48' W 076°17'0 0.0
2018-Feb-08 01:30N 36°48' W 076°17'0 0.0
2018-Feb-08 01:01N 36°48' W 076°17'0 0.0
2018-Feb-08 00:31N 36°48' W 076°17'0 0.0
2018-Feb-08 00:01N 36°48' W 076°17'0 0.0
2018-Feb-07 23:31N 36°48' W 076°17'0 0.0
2018-Feb-07 23:01N 36°48' W 076°17'0 0.0
2018-Feb-07 22:30N 36°48' W 076°17'0 0.0
2018-Feb-07 22:00N 36°48' W 076°17'0 0.0
2018-Feb-07 21:31N 36°48' W 076°17'  
Track history (hours):
 
Tides and Currents Weather Stations Pressure Air Temp Water Temp Dewpoint Dewpoint Depression Visibility Wind Speed Wind Dir Waves Ship Positions

Southern Star

Owner: Southern Star, LLC, Chesapeake, VA. More information available from US FCC via Universal Licensing System and Coast Guard Vessel Documentation Center.

Last reported at 2018-Feb-16 21:28 UTC. Time now 2018-Feb-20 07:37 UTC.
Position N 36°48' W 076°17'.

Length 13 m; draft 3.5 m.

Type: Tug. MMSI: 367593210.

Date/timePositionNaut miles runAvg speedWind from/ knotsBaromVisibWave heightAir tempDewpointWater temp
2018-Feb-16 21:28N 36°48' W 076°17'1 3.0
2018-Feb-16 21:00N 36°50' W 076°18'4 7.0
2018-Feb-16 20:28N 36°53' W 076°20'0 0.9
2018-Feb-16 19:58N 36°53' W 076°21'0 0.1
2018-Feb-16 19:29N 36°53' W 076°21'0 0.0
2018-Feb-16 19:00N 36°53' W 076°21'0 0.0
2018-Feb-16 18:30N 36°53' W 076°21'0 0.0
2018-Feb-16 18:00N 36°53' W 076°21'0 0.0
2018-Feb-16 17:26N 36°53' W 076°21'0 0.0
2018-Feb-16 16:59N 36°53' W 076°21'0 0.0
2018-Feb-16 16:28N 36°53' W 076°21'0 0.0
2018-Feb-16 15:56N 36°53' W 076°21'0 0.3
2018-Feb-16 15:29N 36°53' W 076°21'0 0.8
2018-Feb-16 15:00N 36°53' W 076°20'0 0.0
2018-Feb-16 14:30N 36°53' W 076°20'3 6.0
2018-Feb-16 14:00N 36°51' W 076°18'2 0.1
2018-Feb-14 20:32N 36°48' W 076°17'0 0.2
2018-Feb-14 20:30N 36°48' W 076°17'3 5.7
2018-Feb-14 20:00N 36°51' W 076°18'3 5.0
2018-Feb-14 19:29N 36°53' W 076°20'0 0.7
2018-Feb-14 19:00N 36°53' W 076°20'1 1.9
2018-Feb-14 18:30N 36°52' W 076°20'1 1.8
2018-Feb-14 18:00N 36°52' W 076°19'0 0.0
2018-Feb-14 17:30N 36°52' W 076°19'0 0.0
2018-Feb-14 17:00N 36°52' W 076°19'0 0.0
2018-Feb-14 16:30N 36°52' W 076°19'0 0.0
2018-Feb-14 16:00N 36°52' W 076°19'0 0.0
2018-Feb-14 15:30N 36°52' W 076°19'0 0.0
2018-Feb-14 15:00N 36°52' W 076°19'0 0.0
2018-Feb-14 14:30N 36°52' W 076°19'0 0.0
2018-Feb-14 14:00N 36°52' W 076°19'0 0.2
2018-Feb-14 13:30N 36°52' W 076°19'2 3.4
2018-Feb-14 13:00N 36°53' W 076°20'0 0.0
2018-Feb-14 12:30N 36°53' W 076°20'0 0.0
2018-Feb-14 12:00N 36°53' W 076°20'1 2.2
2018-Feb-14 11:30N 36°52' W 076°20'4 7.7
2018-Feb-14 11:00N 36°49' W 076°17'0 0.0
2018-Feb-12 19:32N 36°48' W 076°17'0 0.0
2018-Feb-12 19:30N 36°48' W 076°17'1 1.5
2018-Feb-12 19:00N 36°49' W 076°17'4 8.4
2018-Feb-12 18:29N 36°53' W 076°20'0 0.1
2018-Feb-12 18:00N 36°53' W 076°20'0 0.0
2018-Feb-12 17:30N 36°53' W 076°20'0 0.0
2018-Feb-12 17:00N 36°53' W 076°20'0 0.2
2018-Feb-12 16:30N 36°53' W 076°20'3 5.4
2018-Feb-12 15:58N 36°56' W 076°20'1 0.9
2018-Feb-12 15:14N 36°56' W 076°20'0 0.0
2018-Feb-12 14:52N 36°56' W 076°20'0 0.0
2018-Feb-12 14:28N 36°56' W 076°20'0 0.0
2018-Feb-12 13:58N 36°56' W 076°20'0 0.0
2018-Feb-12 13:30N 36°56' W 076°20'0 0.0
2018-Feb-12 12:59N 36°56' W 076°20'0 0.0
2018-Feb-12 12:26N 36°56' W 076°20'0 0.0
2018-Feb-12 11:58N 36°56' W 076°20'0 0.0
2018-Feb-12 11:27N 36°56' W 076°20'0 0.0
2018-Feb-12 10:58N 36°56' W 076°20'1 2.3
2018-Feb-12 10:30N 36°55' W 076°20'2 4.7
2018-Feb-12 10:00N 36°53' W 076°20'3 6.2
2018-Feb-12 09:30N 36°51' W 076°17'2 3.4
2018-Feb-12 08:55N 36°50' W 076°15'2 5.8
2018-Feb-12 08:30N 36°49' W 076°17'  
2018-Feb-09 23:02N 36°48' W 076°17'0 0.0
2018-Feb-09 23:00N 36°48' W 076°17'1 2.9
2018-Feb-09 22:46N 36°49' W 076°17'1 5.5
2018-Feb-09 22:30N 36°50' W 076°17'4 1.3
2018-Feb-09 19:30N 36°53' W 076°20'0 0.0
2018-Feb-09 17:30N 36°53' W 076°20'0 0.1
2018-Feb-09 14:30N 36°53' W 076°20'4 8.5
2018-Feb-09 14:00N 36°49' W 076°17'0 0.0
2018-Feb-08 06:30N 36°48' W 076°17'0 0.0
2018-Feb-08 02:30N 36°48' W 076°17'0 0.0
2018-Feb-08 02:01N 36°48' W 076°17'0 0.0
2018-Feb-08 01:30N 36°48' W 076°17'0 0.0
2018-Feb-08 01:01N 36°48' W 076°17'0 0.0
2018-Feb-08 00:31N 36°48' W 076°17'0 0.0
2018-Feb-08 00:01N 36°48' W 076°17'0 0.0
2018-Feb-07 23:31N 36°48' W 076°17'0 0.0
2018-Feb-07 23:01N 36°48' W 076°17'0 0.0
2018-Feb-07 22:30N 36°48' W 076°17'0 0.0
2018-Feb-07 22:00N 36°48' W 076°17'0 0.0
2018-Feb-07 21:31N 36°48' W 076°17'  

Dump ship's entire track history